Terminal Aerodrome Forecast
Issued by NWS

Home | Current Version | Previous Version | Text Only | Print | Product List | Glossary On
Versions: 1 2 3 4 5 6 7 8 9 10 11 12 13 14 15 16 17
000
FTAK31 PAJN 280500
TAFAYA
TAF
PAYA 280521Z 2806/2906 08004KT P6SM -RA FEW015 BKN025 BKN070
      TEMPO 2812/2816 6SM -RA BR SCT015 OVC025
     FM281600 12010KT 6SM -RA SCT010 OVC025
      AMD LTD TO CLD VIS AND WIND 2806/2810=

USA.gov is the U.S. government's official web portal to all federal, state and local government web resources and services.